createdAt,value
2018-01-11T00:00:59.948Z,5.54
2018-01-11T00:02:04.466Z,5.60
2018-01-11T00:03:08.679Z,5.82
2018-01-11T00:04:12.896Z,6.03
2018-01-11T00:05:17.149Z,6.21
2018-01-11T00:06:21.720Z,6.20
2018-01-11T00:07:25.907Z,6.19
2018-01-11T00:08:30.166Z,6.14
2018-01-11T00:09:35.006Z,6.09
2018-01-11T00:10:39.954Z,6.05
2018-01-11T00:11:44.124Z,5.96
2018-01-11T00:12:49.867Z,5.89
2018-01-11T00:13:54.123Z,5.85
2018-01-11T00:14:58.443Z,5.74
2018-01-11T00:16:04.146Z,5.65
2018-01-11T00:17:08.323Z,5.58
2018-01-11T00:18:12.593Z,5.54
2018-01-11T00:19:17.109Z,5.46
2018-01-11T00:20:21.375Z,5.45
2018-01-11T00:21:25.715Z,5.52
2018-01-11T00:22:30.711Z,5.66
2018-01-11T00:23:34.921Z,5.69
2018-01-11T00:24:39.950Z,5.75
2018-01-11T00:25:44.139Z,5.73
2018-01-11T00:26:48.453Z,5.63
2018-01-11T00:27:52.638Z,5.59
2018-01-11T00:28:56.860Z,5.53
2018-01-11T00:30:03.109Z,5.49
2018-01-11T00:31:08.036Z,5.66
2018-01-11T00:32:12.897Z,5.59
2018-01-11T00:33:17.051Z,5.53
2018-01-11T00:34:21.282Z,5.42
2018-01-11T00:35:25.438Z,5.34
2018-01-11T00:36:30.560Z,5.25
2018-01-11T00:37:34.826Z,5.22
2018-01-11T00:38:39.412Z,5.22
2018-01-11T00:39:43.559Z,5.23
2018-01-11T00:40:47.753Z,5.16
2018-01-11T00:41:51.909Z,5.12
2018-01-11T00:42:56.179Z,5.18
2018-01-11T00:44:00.431Z,5.17
2018-01-11T00:45:06.982Z,5.13
2018-01-11T00:46:11.432Z,5.06
2018-01-11T00:47:15.621Z,5.02
2018-01-11T00:48:19.821Z,5.01
2018-01-11T00:49:24.054Z,5.04
2018-01-11T00:50:28.515Z,5.01
2018-01-11T00:51:32.762Z,5.00
2018-01-11T00:52:36.919Z,4.95
2018-01-11T00:53:41.255Z,4.94
2018-01-11T00:54:45.393Z,4.92
2018-01-11T00:55:49.608Z,4.89
2018-01-11T00:56:54.087Z,4.82
2018-01-11T00:57:58.322Z,4.78
2018-01-11T00:59:02.642Z,4.72
2018-01-11T01:00:08.197Z,4.65
2018-01-11T01:01:12.397Z,4.58
2018-01-11T01:02:16.560Z,4.55
2018-01-11T01:03:21.034Z,4.50
2018-01-11T01:04:25.379Z,4.45
2018-01-11T01:05:29.602Z,4.44
2018-01-11T01:06:34.095Z,4.42
2018-01-11T01:07:39.250Z,4.38
2018-01-11T01:08:43.552Z,4.36
2018-01-11T01:09:48.720Z,4.34
2018-01-11T01:10:52.943Z,4.35
2018-01-11T01:11:57.098Z,4.32
2018-01-11T01:13:16.993Z,4.32
2018-01-11T01:14:33.059Z,4.29
2018-01-11T01:18:28.296Z,4.20
2018-01-11T01:19:32.963Z,4.19
2018-01-11T01:20:37.113Z,4.18
2018-01-11T01:21:42.031Z,4.16
2018-01-11T01:22:50.006Z,4.17
2018-01-11T01:23:54.436Z,4.09
2018-01-11T01:24:59.406Z,4.02
2018-01-11T01:26:06.533Z,3.95
2018-01-11T01:27:10.807Z,3.93
2018-01-11T01:28:22.016Z,3.94
2018-01-11T01:30:51.972Z,4.03
2018-01-11T01:31:56.169Z,4.05
2018-01-11T01:33:01.987Z,4.04
2018-01-11T01:40:06.708Z,3.72
2018-01-11T01:41:10.991Z,3.74
2018-01-11T01:42:27.805Z,3.73
2018-01-11T01:43:35.719Z,3.71
2018-01-11T01:44:40.072Z,3.67
2018-01-11T01:45:46.644Z,3.62
2018-01-11T01:46:54.598Z,3.61
2018-01-11T01:48:01.190Z,3.58
2018-01-11T01:49:05.486Z,3.82
2018-01-11T01:50:10.420Z,3.80
2018-01-11T01:51:16.537Z,3.74
2018-01-11T01:52:21.133Z,3.70
2018-01-11T01:53:25.550Z,3.62
2018-01-11T01:54:30.368Z,3.55
2018-01-11T01:55:35.126Z,3.51
2018-01-11T01:56:39.930Z,3.47
2018-01-11T01:57:44.735Z,3.42
2018-01-11T01:58:49.051Z,3.36
2018-01-11T01:59:53.299Z,3.30
2018-01-11T02:00:58.393Z,3.27
2018-01-11T02:02:03.987Z,3.27
2018-01-11T02:03:08.920Z,3.25
2018-01-11T02:04:14.121Z,3.25
2018-01-11T02:05:19.085Z,3.31
2018-01-11T02:06:24.112Z,3.33
2018-01-11T02:07:29.808Z,3.31
2018-01-11T02:08:34.820Z,3.31
2018-01-11T02:09:40.903Z,3.51
2018-01-11T02:10:46.993Z,3.68
2018-01-11T02:11:51.843Z,3.74
2018-01-11T02:12:56.113Z,3.62
2018-01-11T02:14:00.917Z,3.54
2018-01-11T02:15:06.921Z,3.50
2018-01-11T02:19:04.976Z,3.42
2018-01-11T02:20:09.222Z,3.57
2018-01-11T02:21:13.459Z,3.74
2018-01-11T02:22:17.696Z,3.93
2018-01-11T02:23:21.816Z,4.06
2018-01-11T02:24:26.230Z,4.14
2018-01-11T02:25:30.359Z,4.29
2018-01-11T02:26:34.676Z,4.32
2018-01-11T02:27:38.909Z,4.34
2018-01-11T02:28:43.248Z,4.37
2018-01-11T02:29:48.265Z,4.37
2018-01-11T02:30:52.793Z,4.37
2018-01-11T02:31:57.076Z,4.21
2018-01-11T02:33:01.213Z,4.21
2018-01-11T02:34:05.455Z,4.32
2018-01-11T02:35:09.666Z,4.29
2018-01-11T02:36:14.627Z,4.18
2018-01-11T02:37:19.101Z,4.06
2018-01-11T02:38:23.289Z,4.17
2018-01-11T02:39:27.425Z,4.29
2018-01-11T02:40:31.590Z,4.23
2018-01-11T02:41:35.723Z,4.24
2018-01-11T02:42:39.870Z,4.23
2018-01-11T02:43:44.201Z,4.12
2018-01-11T02:44:48.385Z,3.96
2018-01-11T02:45:52.592Z,3.69
2018-01-11T02:46:56.838Z,3.42
2018-01-11T02:48:01.284Z,3.21
2018-01-11T02:49:05.555Z,3.09
2018-01-11T02:50:10.015Z,3.00
2018-01-11T02:51:14.149Z,2.94
2018-01-11T02:52:18.357Z,2.86
2018-01-11T02:53:22.642Z,2.84
2018-01-11T02:54:26.806Z,2.77
2018-01-11T02:55:30.978Z,2.78
2018-01-11T02:56:35.486Z,2.97
2018-01-11T02:57:39.742Z,2.96
2018-01-11T02:58:43.912Z,3.05
2018-01-11T02:59:48.650Z,3.09
2018-01-11T03:00:52.874Z,3.05
2018-01-11T03:01:57.005Z,3.02
2018-01-11T03:03:01.502Z,2.99
2018-01-11T03:04:05.724Z,2.91
2018-01-11T03:05:09.895Z,2.93
2018-01-11T03:06:15.244Z,2.91
2018-01-11T03:07:19.380Z,2.91
2018-01-11T03:08:24.213Z,2.99
2018-01-11T03:09:28.358Z,3.06
2018-01-11T03:10:33.670Z,2.99
2018-01-11T03:11:37.915Z,3.00
2018-01-11T03:12:42.192Z,2.96
2018-01-11T03:13:46.341Z,3.06
2018-01-11T03:14:50.448Z,3.08
2018-01-11T03:15:54.856Z,3.18
2018-01-11T03:16:58.993Z,3.29
2018-01-11T03:18:03.239Z,3.31
2018-01-11T03:19:07.479Z,3.31
2018-01-11T03:20:11.634Z,3.40
2018-01-11T03:21:15.755Z,3.43
2018-01-11T03:22:20.163Z,3.38
2018-01-11T03:23:24.428Z,3.24
2018-01-11T03:24:28.542Z,3.11
2018-01-11T03:25:32.646Z,2.99
2018-01-11T03:26:36.781Z,2.92
2018-01-11T03:27:41.814Z,2.89
2018-01-11T03:28:45.918Z,2.84
2018-01-11T03:29:50.064Z,2.78
2018-01-11T03:30:54.190Z,2.74
2018-01-11T03:31:58.438Z,2.74
2018-01-11T03:33:02.603Z,2.70
2018-01-11T03:34:06.853Z,2.68
2018-01-11T03:35:12.335Z,2.66
2018-01-11T03:36:16.454Z,2.67
2018-01-11T03:37:20.706Z,2.67
2018-01-11T03:38:24.897Z,2.72
2018-01-11T03:39:29.020Z,2.72
2018-01-11T03:40:33.171Z,2.73
2018-01-11T03:41:37.733Z,2.77
2018-01-11T03:42:42.540Z,2.79
2018-01-11T03:43:47.066Z,2.86
2018-01-11T03:44:51.185Z,2.89
2018-01-11T03:45:55.285Z,2.88
2018-01-11T03:46:59.472Z,2.84
2018-01-11T03:48:03.938Z,2.81
2018-01-11T03:49:08.154Z,2.74
2018-01-11T03:50:12.317Z,2.73
2018-01-11T03:51:17.316Z,2.75
2018-01-11T03:52:21.524Z,2.75
2018-01-11T03:53:25.705Z,2.74
2018-01-11T03:54:29.818Z,2.73
2018-01-11T03:55:34.075Z,2.81
2018-01-11T03:56:38.232Z,2.87
2018-01-11T03:57:45.268Z,3.03
2018-01-11T03:58:49.504Z,3.02
2018-01-11T03:59:53.677Z,2.92
2018-01-11T04:00:59.318Z,2.90
2018-01-11T04:02:03.450Z,3.13
2018-01-11T04:03:07.601Z,3.27
2018-01-11T04:04:11.792Z,3.14
2018-01-11T04:05:15.924Z,3.01
2018-01-11T04:06:20.052Z,2.95
2018-01-11T04:07:24.467Z,2.84
2018-01-11T04:08:28.596Z,2.81
2018-01-11T04:09:32.800Z,2.74
2018-01-11T04:10:36.937Z,2.82
2018-01-11T04:11:41.097Z,2.84
2018-01-11T04:12:45.232Z,2.96
2018-01-11T04:13:49.661Z,3.05
2018-01-11T04:19:00.188Z,2.41
2018-01-11T04:20:12.364Z,2.28
2018-01-11T04:21:16.562Z,2.19
2018-01-11T04:22:21.828Z,2.30
2018-01-11T04:23:25.988Z,2.26
2018-01-11T04:24:30.712Z,2.25
2018-01-11T04:25:35.804Z,2.23
2018-01-11T04:26:40.846Z,2.32
2018-01-11T04:27:45.335Z,2.37
2018-01-11T04:28:49.977Z,2.30
2018-01-11T04:29:54.171Z,2.19
2018-01-11T04:31:01.351Z,2.09
2018-01-11T04:32:05.497Z,2.03
2018-01-11T04:33:09.955Z,1.99
2018-01-11T04:34:15.749Z,1.98
2018-01-11T04:35:20.451Z,2.01
2018-01-11T04:36:25.807Z,2.06
2018-01-11T04:37:30.779Z,2.11
2018-01-11T04:38:36.345Z,2.27
2018-01-11T04:40:51.446Z,2.50
2018-01-11T04:41:56.742Z,2.44
2018-01-11T04:43:00.896Z,2.42
2018-01-11T04:44:06.752Z,2.49
2018-01-11T04:45:14.162Z,2.60
2018-01-11T04:46:19.926Z,2.93
2018-01-11T04:47:24.107Z,3.27
2018-01-11T04:48:28.728Z,3.31
2018-01-11T04:49:33.215Z,3.33
2018-01-11T04:50:37.430Z,3.16
2018-01-11T04:51:42.433Z,3.06
2018-01-11T04:52:47.396Z,3.04
2018-01-11T04:53:52.541Z,3.04
2018-01-11T04:54:57.763Z,3.12
2018-01-11T04:56:02.399Z,3.22
2018-01-11T04:57:07.342Z,3.17
2018-01-11T04:58:13.119Z,3.23
2018-01-11T04:59:17.270Z,3.06
2018-01-11T05:00:23.452Z,2.88
2018-01-11T05:01:27.829Z,2.71
2018-01-11T05:02:32.866Z,2.61
2018-01-11T05:03:37.487Z,2.52
2018-01-11T05:04:43.815Z,2.41
2018-01-11T05:05:48.054Z,2.35
2018-01-11T05:06:52.206Z,2.38
2018-01-11T05:07:59.274Z,2.32
2018-01-11T05:09:03.464Z,2.31
2018-01-11T05:11:23.206Z,2.22
2018-01-11T05:12:27.843Z,2.27
2018-01-11T05:13:32.101Z,2.29
2018-01-11T05:14:36.262Z,2.28
2018-01-11T05:15:41.370Z,2.28
2018-01-11T05:16:45.943Z,2.26
2018-01-11T05:17:50.091Z,2.22
2018-01-11T05:18:54.258Z,2.15
2018-01-11T05:19:58.383Z,2.10
2018-01-11T05:21:02.654Z,2.06
2018-01-11T05:22:06.925Z,2.01
2018-01-11T05:23:12.366Z,2.00
2018-01-11T05:24:16.561Z,2.00
2018-01-11T05:25:20.898Z,2.03
2018-01-11T05:26:25.402Z,2.08
2018-01-11T05:27:29.583Z,2.15
2018-01-11T05:28:33.722Z,2.23
2018-01-11T05:29:38.195Z,2.19
2018-01-11T05:30:42.736Z,2.12
2018-01-11T05:31:46.955Z,2.09
2018-01-11T05:32:51.136Z,2.10
2018-01-11T05:33:55.286Z,2.20
2018-01-11T05:35:00.173Z,2.25
2018-01-11T05:36:06.372Z,2.26
2018-01-11T05:37:11.154Z,2.32
2018-01-11T05:38:15.351Z,2.42
2018-01-11T05:39:19.669Z,2.46
2018-01-11T05:40:23.802Z,2.49
2018-01-11T05:41:27.936Z,2.47
2018-01-11T05:42:32.392Z,2.36
2018-01-11T05:43:36.546Z,2.27
2018-01-11T05:44:41.666Z,2.25
2018-01-11T05:45:46.031Z,2.19
2018-01-11T05:46:50.532Z,2.17
2018-01-11T05:47:54.682Z,2.11
2018-01-11T05:48:59.131Z,2.03
2018-01-11T05:50:03.509Z,2.00
2018-01-11T05:51:07.724Z,1.96
2018-01-11T05:52:11.928Z,1.94
2018-01-11T05:53:16.069Z,1.92
2018-01-11T05:54:20.310Z,2.00
2018-01-11T05:55:24.936Z,2.00
2018-01-11T05:56:29.161Z,1.91
2018-01-11T05:57:33.305Z,1.84
2018-01-11T05:58:37.483Z,1.81
2018-01-11T05:59:42.398Z,1.84
2018-01-11T06:00:46.878Z,1.80
2018-01-11T06:01:51.311Z,1.80
2018-01-11T06:02:55.514Z,1.81
2018-01-11T06:03:59.781Z,1.89
2018-01-11T06:05:04.012Z,1.83
2018-01-11T06:06:08.344Z,1.77
2018-01-11T06:07:13.447Z,1.75
2018-01-11T06:08:18.024Z,1.78
2018-01-11T06:09:22.203Z,1.85
2018-01-11T06:10:26.438Z,1.92
2018-01-11T06:11:30.713Z,1.98
2018-01-11T06:12:34.845Z,1.99
2018-01-11T06:13:38.994Z,1.98
2018-01-11T06:14:43.520Z,2.03
2018-01-11T06:15:47.817Z,2.02
2018-01-11T06:16:52.484Z,1.96
2018-01-11T06:17:56.750Z,1.83
2018-01-11T06:19:01.019Z,1.71
2018-01-11T06:20:05.163Z,1.59
2018-01-11T06:21:09.472Z,1.53
2018-01-11T06:22:14.614Z,1.48
2018-01-11T06:23:18.790Z,1.45
2018-01-11T06:24:23.770Z,1.60
2018-01-11T06:25:27.992Z,1.86
2018-01-11T06:26:32.545Z,2.12
2018-01-11T06:27:36.789Z,2.34
2018-01-11T06:28:41.745Z,2.35
2018-01-11T06:29:45.987Z,2.28
2018-01-11T06:30:50.542Z,2.06
2018-01-11T06:31:55.282Z,1.91
2018-01-11T06:32:59.815Z,1.82
2018-01-11T06:34:04.021Z,1.80
2018-01-11T06:35:08.195Z,1.81
2018-01-11T06:36:12.441Z,1.88
2018-01-11T06:37:17.036Z,1.87
2018-01-11T06:38:21.210Z,1.92
2018-01-11T06:39:25.715Z,1.92
2018-01-11T06:40:29.867Z,1.98
2018-01-11T06:41:34.093Z,2.18
2018-01-11T06:42:38.295Z,2.35
2018-01-11T06:43:42.479Z,2.41
2018-01-11T06:44:46.624Z,2.40
2018-01-11T06:45:51.191Z,2.34
2018-01-11T06:46:55.799Z,2.24
2018-01-11T06:48:00.951Z,2.15
2018-01-11T06:49:05.107Z,2.32
2018-01-11T06:50:09.299Z,2.31
2018-01-11T06:51:14.278Z,2.30
2018-01-11T06:52:18.866Z,2.30
2018-01-11T06:53:23.061Z,2.14
2018-01-11T06:54:27.287Z,2.07
2018-01-11T06:55:31.545Z,1.99
2018-01-11T06:56:35.757Z,1.77
2018-01-11T06:57:41.366Z,1.58
2018-01-11T06:58:45.514Z,1.46
2018-01-11T06:59:49.749Z,1.36
2018-01-11T07:00:54.138Z,1.24
2018-01-11T07:01:58.359Z,1.22
2018-01-11T07:03:02.794Z,1.16
2018-01-11T07:04:07.499Z,1.16
2018-01-11T07:05:11.698Z,1.14
2018-01-11T07:06:16.492Z,1.17
2018-01-11T07:07:20.667Z,1.36
2018-01-11T07:08:24.844Z,1.67
2018-01-11T07:09:28.990Z,2.03
2018-01-11T07:10:33.518Z,2.07
2018-01-11T07:11:38.298Z,2.00
2018-01-11T07:12:43.086Z,1.85
2018-01-11T07:13:47.443Z,1.71
2018-01-11T07:14:51.552Z,1.59
2018-01-11T07:15:55.755Z,1.49
2018-01-11T07:16:59.900Z,1.39
2018-01-11T07:18:04.018Z,1.66
2018-01-11T07:19:08.386Z,1.66
2018-01-11T07:20:12.569Z,1.73
2018-01-11T07:21:16.750Z,1.70
2018-01-11T07:22:20.898Z,1.61
2018-01-11T07:23:25.456Z,1.49
2018-01-11T07:24:29.699Z,1.52
2018-01-11T07:25:33.900Z,1.76
2018-01-11T07:26:38.117Z,1.87
2018-01-11T07:27:43.260Z,1.87
2018-01-11T07:28:47.420Z,1.75
2018-01-11T07:29:51.954Z,1.54
2018-01-11T07:30:56.368Z,1.38
2018-01-11T07:32:00.577Z,1.35
2018-01-11T07:33:04.844Z,1.39
2018-01-11T07:34:09.042Z,1.38
2018-01-11T07:35:14.054Z,1.29
2018-01-11T07:36:18.589Z,1.22
2018-01-11T07:37:22.733Z,1.19
2018-01-11T07:38:26.919Z,1.25
2018-01-11T07:39:31.064Z,1.31
2018-01-11T07:40:35.273Z,1.37
2018-01-11T07:41:39.550Z,1.56
2018-01-11T07:42:44.023Z,1.72
2018-01-11T07:43:48.192Z,1.81
2018-01-11T07:44:52.427Z,1.85
2018-01-11T07:45:56.761Z,1.91
2018-01-11T07:47:01.376Z,1.96
2018-01-11T07:48:05.870Z,1.95
2018-01-11T07:49:10.002Z,1.98
2018-01-11T07:50:14.735Z,1.95
2018-01-11T07:51:18.986Z,2.23
2018-01-11T07:52:23.220Z,2.62
2018-01-11T07:53:27.459Z,2.86
2018-01-11T07:54:31.978Z,2.89
2018-01-11T07:55:36.171Z,2.53
2018-01-11T07:56:41.282Z,2.23
2018-01-11T07:57:45.455Z,2.06
2018-01-11T07:58:49.586Z,1.83
2018-01-11T07:59:53.732Z,1.74
2018-01-11T08:00:58.506Z,1.71
2018-01-11T08:02:02.962Z,1.82
2018-01-11T08:03:07.159Z,1.99
2018-01-11T08:04:11.395Z,2.25
2018-01-11T08:05:16.139Z,2.17
2018-01-11T08:06:20.483Z,2.29
2018-01-11T08:07:25.690Z,2.66
2018-01-11T08:08:29.901Z,2.56
2018-01-11T08:09:34.066Z,2.36
2018-01-11T08:10:38.239Z,2.32
2018-01-11T08:11:42.521Z,2.59
2018-01-11T08:12:46.787Z,2.41
2018-01-11T08:13:51.346Z,2.66
2018-01-11T08:14:55.618Z,2.97
2018-01-11T08:16:00.233Z,3.16
2018-01-11T08:17:04.419Z,3.12
2018-01-11T08:18:09.011Z,3.01
2018-01-11T08:19:13.443Z,2.90
2018-01-11T08:20:18.562Z,2.67
2018-01-11T08:21:22.800Z,2.73
2018-01-11T08:22:26.995Z,2.90
2018-01-11T08:23:31.311Z,2.85
2018-01-11T08:24:35.463Z,2.97
2018-01-11T08:25:40.548Z,3.10
2018-01-11T08:26:45.116Z,3.21
2018-01-11T08:27:49.658Z,2.95
2018-01-11T08:28:53.902Z,2.72
2018-01-11T08:29:58.155Z,2.57
2018-01-11T08:31:03.462Z,2.49
2018-01-11T08:32:08.482Z,2.43
2018-01-11T08:33:13.280Z,2.42
2018-01-11T08:34:17.579Z,2.64
2018-01-11T08:35:21.780Z,2.57
2018-01-11T08:36:26.086Z,2.55
2018-01-11T08:37:30.373Z,2.63
2018-01-11T08:38:34.558Z,2.66
2018-01-11T08:39:41.923Z,2.90
2018-01-11T08:40:46.165Z,2.96
2018-01-11T08:41:50.382Z,3.00
2018-01-11T08:42:54.622Z,2.99
2018-01-11T08:43:58.816Z,3.07
2018-01-11T08:45:05.095Z,3.30
2018-01-11T08:46:10.201Z,3.49
2018-01-11T08:47:15.678Z,3.70
2018-01-11T08:48:19.797Z,3.79
2018-01-11T08:49:24.033Z,3.70
2018-01-11T08:50:28.258Z,3.52
2018-01-11T08:51:32.569Z,3.48
2018-01-11T08:52:36.758Z,3.68
2018-01-11T08:53:41.002Z,3.60
2018-01-11T08:54:45.173Z,3.50
2018-01-11T08:55:49.456Z,3.41
2018-01-11T08:56:53.650Z,3.35
2018-01-11T08:57:57.962Z,3.59
2018-01-11T08:59:02.314Z,3.57
2018-01-11T09:00:08.051Z,3.55
2018-01-11T09:01:12.217Z,3.56
2018-01-11T09:02:16.414Z,3.58
2018-01-11T09:03:20.770Z,3.62
2018-01-11T09:04:25.304Z,3.61
2018-01-11T09:05:29.471Z,3.69
2018-01-11T09:06:33.851Z,3.71
2018-01-11T09:07:38.850Z,3.89
2018-01-11T09:08:43.055Z,4.17
2018-01-11T09:09:47.285Z,4.29
2018-01-11T09:10:51.870Z,4.29
2018-01-11T09:11:56.054Z,4.34
2018-01-11T09:13:00.294Z,4.15
2018-01-11T09:14:04.556Z,4.04
2018-01-11T09:15:08.888Z,4.05
2018-01-11T09:16:13.457Z,4.10
2018-01-11T09:17:18.416Z,4.09
2018-01-11T09:18:22.982Z,4.19
2018-01-11T09:19:27.604Z,4.29
2018-01-11T09:20:32.629Z,4.53
2018-01-11T09:21:36.854Z,4.31
2018-01-11T09:22:41.130Z,4.12
2018-01-11T09:23:45.610Z,3.83
2018-01-11T09:24:49.855Z,3.66
2018-01-11T09:25:54.879Z,3.70
2018-01-11T09:26:59.134Z,3.79
2018-01-11T09:28:03.329Z,4.03
2018-01-11T09:29:07.829Z,4.23
2018-01-11T09:30:13.968Z,4.46
2018-01-11T09:31:18.440Z,4.61
2018-01-11T09:32:22.850Z,4.73
2018-01-11T09:33:27.872Z,4.76
2018-01-11T09:34:32.059Z,4.81
2018-01-11T09:35:36.660Z,4.99
2018-01-11T09:36:41.719Z,5.23
2018-01-11T09:37:45.882Z,5.36
2018-01-11T09:38:50.142Z,5.47
2018-01-11T09:39:55.252Z,5.54
2018-01-11T09:40:59.442Z,5.75
2018-01-11T09:42:03.961Z,5.79
2018-01-11T09:43:08.275Z,5.52
2018-01-11T09:44:12.538Z,5.65
2018-01-11T09:45:16.768Z,5.90
2018-01-11T09:46:20.980Z,6.30
2018-01-11T09:47:25.146Z,6.46
2018-01-11T09:48:29.542Z,6.35
2018-01-11T09:49:33.802Z,6.26
2018-01-11T09:50:38.655Z,6.31
2018-01-11T09:51:42.842Z,6.14
2018-01-11T09:52:47.024Z,6.09
2018-01-11T09:53:51.285Z,6.03
2018-01-11T09:54:55.783Z,5.50
2018-01-11T09:56:00.123Z,5.87
2018-01-11T09:57:04.987Z,5.88
2018-01-11T09:58:09.187Z,6.00
2018-01-11T09:59:13.539Z,6.28
2018-01-11T10:00:18.202Z,6.27
2018-01-11T10:01:22.928Z,6.44
2018-01-11T10:02:27.243Z,6.38
2018-01-11T10:03:31.427Z,6.57
2018-01-11T10:04:35.775Z,6.65
2018-01-11T10:05:40.937Z,6.64
2018-01-11T10:06:45.196Z,6.90
2018-01-11T10:07:49.796Z,7.00
2018-01-11T10:08:54.016Z,6.97
2018-01-11T10:09:58.209Z,6.68
2018-01-11T10:11:02.447Z,6.62
2018-01-11T10:12:06.634Z,6.55
2018-01-11T10:13:10.772Z,6.26
2018-01-11T10:14:15.383Z,6.22
2018-01-11T10:15:19.762Z,6.36
2018-01-11T10:16:24.061Z,6.35
2018-01-11T10:17:28.278Z,6.62
2018-01-11T10:18:32.555Z,6.58
2018-01-11T10:19:37.186Z,6.56
2018-01-11T10:20:41.914Z,6.62
2018-01-11T10:21:46.315Z,6.71
2018-01-11T10:22:50.562Z,6.68
2018-01-11T10:23:54.783Z,6.70
2018-01-11T10:24:59.084Z,6.67
2018-01-11T10:26:04.655Z,6.63
2018-01-11T10:27:08.960Z,6.65
2018-01-11T10:28:13.250Z,6.67
2018-01-11T10:29:17.705Z,6.79
2018-01-11T10:30:22.762Z,6.75
2018-01-11T10:31:26.919Z,6.46
2018-01-11T10:32:31.735Z,6.24
2018-01-11T10:33:35.988Z,6.21
2018-01-11T10:34:41.047Z,6.09
2018-01-11T10:35:45.349Z,5.99
2018-01-11T10:36:49.608Z,6.23
2018-01-11T10:37:53.858Z,6.22
2018-01-11T10:38:58.348Z,6.28
2018-01-11T10:40:02.968Z,6.52
2018-01-11T10:41:07.159Z,6.68
2018-01-11T10:42:11.482Z,6.80
2018-01-11T10:43:15.705Z,6.92
2018-01-11T10:44:20.666Z,7.03
2018-01-11T10:45:25.342Z,7.26
2018-01-11T10:46:29.528Z,7.39
2018-01-11T10:47:33.881Z,7.39
2018-01-11T10:48:38.040Z,7.71
2018-01-11T10:49:43.066Z,7.93
2018-01-11T10:50:47.326Z,8.16
2018-01-11T10:51:51.852Z,8.36
2018-01-11T10:52:56.299Z,8.53
2018-01-11T10:54:00.562Z,8.85
2018-01-11T10:55:04.984Z,8.99
2018-01-11T10:56:09.381Z,8.87
2018-01-11T10:57:13.540Z,8.81
2018-01-11T10:58:18.192Z,8.86
2018-01-11T10:59:22.335Z,8.63
2018-01-11T11:00:30.598Z,8.59
2018-01-11T11:01:38.964Z,8.86
2018-01-11T11:02:57.384Z,9.10
2018-01-11T11:04:02.068Z,9.48
2018-01-11T11:05:06.389Z,9.85
2018-01-11T11:06:10.607Z,9.90
2018-01-11T11:07:14.852Z,9.90
2018-01-11T11:08:19.028Z,9.85
2018-01-11T11:09:23.340Z,10.02
2018-01-11T11:10:27.896Z,9.90
2018-01-11T11:11:32.140Z,10.04
2018-01-11T11:12:36.313Z,10.16
2018-01-11T11:13:40.481Z,10.30
2018-01-11T11:14:44.841Z,10.24
2018-01-11T11:15:49.442Z,10.61
2018-01-11T11:16:54.125Z,10.90
2018-01-11T11:17:58.374Z,10.88
2018-01-11T11:19:02.602Z,10.86
2018-01-11T11:20:06.924Z,11.19
2018-01-11T11:21:11.273Z,11.27
2018-01-11T11:22:15.503Z,11.57
2018-01-11T11:23:20.029Z,12.12
2018-01-11T11:24:24.350Z,12.07
2018-01-11T11:25:28.624Z,11.91
2018-01-11T11:26:32.878Z,11.92
2018-01-11T11:27:37.194Z,11.66
2018-01-11T11:28:42.198Z,11.52
2018-01-11T11:29:46.534Z,11.70
2018-01-11T11:30:51.302Z,11.52
2018-01-11T11:31:55.563Z,11.39
2018-01-11T11:32:59.830Z,11.40
2018-01-11T11:34:04.188Z,11.57
2018-01-11T11:35:08.403Z,11.02
2018-01-11T11:36:12.962Z,10.84
2018-01-11T11:37:17.396Z,10.69
2018-01-11T11:38:21.630Z,10.43
2018-01-11T11:39:25.922Z,10.71
2018-01-11T11:40:30.075Z,10.81
2018-01-11T11:41:34.235Z,10.95
2018-01-11T11:42:38.864Z,11.03
2018-01-11T11:43:43.846Z,11.06
2018-01-11T11:44:48.127Z,11.22
2018-01-11T11:45:52.511Z,11.48
2018-01-11T11:46:56.897Z,11.81
2018-01-11T11:48:01.331Z,12.34
2018-01-11T11:49:06.435Z,12.62
2018-01-11T11:50:10.787Z,13.03
2018-01-11T11:51:15.037Z,12.83
2018-01-11T11:52:19.293Z,13.04
2018-01-11T11:53:23.498Z,13.04
2018-01-11T11:54:28.118Z,12.53
2018-01-11T11:56:36.785Z,12.86
2018-01-11T11:57:41.002Z,13.26
2018-01-11T11:58:45.341Z,13.01
2018-01-11T11:59:49.486Z,13.05
2018-01-11T12:00:54.818Z,12.81
2018-01-11T12:01:59.239Z,12.90
2018-01-11T12:03:03.621Z,13.33
2018-01-11T12:04:08.482Z,13.63
2018-01-11T12:05:12.690Z,14.04
2018-01-11T12:06:17.036Z,14.33
2018-01-11T12:07:21.598Z,14.52
2018-01-11T12:08:25.782Z,14.69
2018-01-11T12:09:30.185Z,14.59
2018-01-11T12:10:34.410Z,14.64
2018-01-11T12:11:38.671Z,14.79
2018-01-11T12:12:44.093Z,14.88
2018-01-11T12:13:49.673Z,15.28
2018-01-11T12:14:53.935Z,15.67
2018-01-11T12:15:59.272Z,16.00
2018-01-11T12:17:03.503Z,15.88
2018-01-11T12:18:08.374Z,15.82
2018-01-11T12:19:12.635Z,15.80
2018-01-11T12:20:17.469Z,16.02
2018-01-11T12:21:22.263Z,16.02
2018-01-11T12:22:26.565Z,16.07
2018-01-11T12:23:30.809Z,15.78
2018-01-11T12:24:35.141Z,14.98
2018-01-11T12:25:39.396Z,14.98
2018-01-11T12:26:44.476Z,15.29
2018-01-11T12:28:47.899Z,15.67
2018-01-11T12:29:52.207Z,15.88
2018-01-11T12:30:56.668Z,15.44
2018-01-11T12:32:01.013Z,15.30
2018-01-11T12:33:06.269Z,15.11
2018-01-11T12:34:12.424Z,14.84
2018-01-11T12:35:16.679Z,14.97
2018-01-11T12:36:20.967Z,15.26
2018-01-11T12:37:25.287Z,15.41
2018-01-11T12:38:29.497Z,15.23
2018-01-11T12:39:34.184Z,14.97
2018-01-11T12:40:38.447Z,14.82
2018-01-11T12:41:42.791Z,15.06
2018-01-11T12:42:47.051Z,15.35
2018-01-11T12:43:51.270Z,15.49
2018-01-11T12:44:55.540Z,15.84
2018-01-11T12:46:00.860Z,16.12
2018-01-11T12:47:05.008Z,16.55
2018-01-11T12:48:09.911Z,16.86
2018-01-11T12:49:14.089Z,16.67
2018-01-11T12:50:18.352Z,17.10
2018-01-11T12:51:22.635Z,17.19
2018-01-11T12:52:27.238Z,17.44
2018-01-11T12:53:31.452Z,17.06
2018-01-11T12:54:35.776Z,17.09
2018-01-11T12:55:40.711Z,17.30
2018-01-11T12:56:44.922Z,17.32
2018-01-11T12:57:49.197Z,17.27
2018-01-11T12:58:53.480Z,17.31
2018-01-11T12:59:57.749Z,16.86
2018-01-11T13:01:02.506Z,16.80
2018-01-11T13:02:08.522Z,16.84
2018-01-11T13:03:13.079Z,17.16
2018-01-11T13:04:17.375Z,17.52
2018-01-11T13:05:21.612Z,17.89
2018-01-11T13:06:25.900Z,17.99
2018-01-11T13:07:30.227Z,18.05
2018-01-11T13:08:34.574Z,18.16
2018-01-11T13:09:39.216Z,18.27
2018-01-11T13:10:43.484Z,17.80
2018-01-11T13:11:47.730Z,17.64
2018-01-11T13:12:51.946Z,17.62
2018-01-11T13:13:56.227Z,17.94
2018-01-11T13:15:00.515Z,18.22
2018-01-11T13:16:05.299Z,18.49
2018-01-11T13:17:10.360Z,18.59
2018-01-11T13:18:14.584Z,18.66
2018-01-11T13:19:18.904Z,18.60
2018-01-11T13:20:23.104Z,18.27
2018-01-11T13:21:27.379Z,18.18
2018-01-11T13:22:31.927Z,17.97
2018-01-11T13:23:36.106Z,17.68
2018-01-11T13:24:41.249Z,16.49
2018-01-11T13:25:45.547Z,15.63
2018-01-11T13:26:49.839Z,15.04
2018-01-11T13:27:54.043Z,15.02
2018-01-11T13:28:58.248Z,15.08
2018-01-11T13:30:04.900Z,15.03
2018-01-11T13:31:10.680Z,14.72
2018-01-11T13:32:14.968Z,14.57
2018-01-11T13:33:19.246Z,14.43
2018-01-11T13:34:24.749Z,14.35
2018-01-11T13:35:29.111Z,14.08
2018-01-11T13:36:33.287Z,13.82
2018-01-11T13:37:37.550Z,13.62
2018-01-11T13:38:41.812Z,13.45
2018-01-11T13:39:46.475Z,13.35
2018-01-11T13:40:50.791Z,13.47
2018-01-11T13:41:55.040Z,13.75
2018-01-11T13:42:59.235Z,13.76
2018-01-11T13:44:03.428Z,13.81
2018-01-11T13:45:08.738Z,13.95
2018-01-11T13:46:13.859Z,14.07
2018-01-11T13:47:18.481Z,13.83
2018-01-11T13:48:22.748Z,13.67
2018-01-11T13:49:26.936Z,13.59
2018-01-11T13:50:31.210Z,13.68
2018-01-11T13:51:35.507Z,13.70
2018-01-11T13:52:42.154Z,13.79
2018-01-11T13:53:46.464Z,13.84
2018-01-11T13:54:50.720Z,13.78
2018-01-11T13:55:54.989Z,13.76
2018-01-11T13:56:59.314Z,13.27
2018-01-11T13:58:03.627Z,13.31
2018-01-11T13:59:07.925Z,13.29
2018-01-11T14:00:14.181Z,13.41
2018-01-11T14:01:18.882Z,13.34
2018-01-11T14:02:24.376Z,13.08
2018-01-11T14:03:29.584Z,12.80
2018-01-11T14:04:33.878Z,12.74
2018-01-11T14:05:42.271Z,12.53
2018-01-11T14:06:46.544Z,12.29
2018-01-11T14:07:51.171Z,12.10
2018-01-11T14:08:55.515Z,11.61
2018-01-11T14:09:59.795Z,11.39
2018-01-11T14:11:04.079Z,11.24
2018-01-11T14:12:08.813Z,11.01
2018-01-11T14:13:14.028Z,10.75
2018-01-11T14:14:20.459Z,10.61
2018-01-11T14:15:25.007Z,10.45
2018-01-11T14:16:29.260Z,10.21
2018-01-11T14:17:33.502Z,10.23
2018-01-11T14:18:40.206Z,10.24
2018-01-11T14:19:44.575Z,9.91
2018-01-11T14:20:49.564Z,9.73
2018-01-11T14:21:53.853Z,9.55
2018-01-11T14:22:58.111Z,9.42
2018-01-11T14:24:02.841Z,9.27
2018-01-11T14:25:07.096Z,9.29
2018-01-11T14:26:11.453Z,9.12
2018-01-11T14:27:15.620Z,9.00
2018-01-11T14:28:19.937Z,9.06
2018-01-11T14:29:24.310Z,9.02
2018-01-11T14:30:29.851Z,8.83
2018-01-11T14:31:34.122Z,8.67
2018-01-11T14:32:38.318Z,8.71
2018-01-11T14:33:42.565Z,8.74
2018-01-11T14:34:46.902Z,8.58
2018-01-11T14:35:51.144Z,8.51